الرياض, السعودية

06:29 AM AST on أعس×س 30, 2015 (GMT +0300)
West Riyadh | | Change Station
CLOSE
Current Station
Personal Weather Stations
Location: Riyadh, RIYADH PROVINCE
Elevation: 2093 ft
Nearby Weather Stations

Elev 2093 ft 24.65 °N, 46.64 °E | Updated 1 minute ago

Clear
صافية
92.7 °F
Feels Like 89 °F
N
1.7
ريح متغير ريح from غرب

هذا اليوم
High -- | Low -- °F
--% Chance of Precip.
Yesterday
High -- | Low -- °F
Precip. -- في
5:33 AM 6:14 PM
بدر, 100% visible
الضغط 29.83 في
وضوح الرؤية -9999.0 أميال
سحابات
مؤشر الحرارة 89 °F
نقطة الندى 44 °F
الرطوبة 19%
Rainfall 0.00 في
عمق الثلج Not available.
الأشعة فوق البنفسجية Not available.
Pollen Not available.
جودة الهواء Not available.
Flu Activity Not available.
METAR OERK 300300Z 28003KT CAVOK 30/M01 Q1010 NOSIG
الضغط 29.83 في
وضوح الرؤية -9999.0 أميال
سحابات
مؤشر الحرارة 89 °F
نقطة الندى 44 °F
الرطوبة 19%
Rainfall 0.00 في
عمق الثلج Not available.
الأشعة فوق البنفسجية Not available.
Pollen Not available.
جودة الهواء Not available.
Flu Activity Not available.
METAR OERK 300300Z 28003KT CAVOK 30/M01 Q1010 NOSIG

10-Day Weather Forecast

×

Almanac

علم الفلك

Aug. 30, 2015 Rise Set
Actual Time
Civil Twilight
Nautical Twilight
Astronomical Twilight
قمر
Length Of Visible Light
طول الیوم
Tomorrow will be .
, % of the Moon is Illuminated

Today's Extremes

Country Highs Country Lows

Community

WunderPhotos

Upload Photos

1,850,867 photos uploaded!

WunderBlogs® & News

Nearby

جودة الهواء

  جودة الهواء AQ Index Pollutant
Not available.

عمق الثلج

Station Depth Elevation

Earthquake Activity

City Distance Mag. Time & Date
Minimum magnitude displayed is 2.5.

Coastal Water Temperatures

مكان درجات الحرارة

Stations

Nearby Weather Stations

Station Location الحرارة رياح باردة نقطة الندى الرطوبة ريح Precip. Elev تحديث Type